createdAt,value
2023-04-19T00:01:01.618Z,102879.69
2023-04-19T00:03:30.598Z,102878.72
2023-04-19T00:05:59.333Z,102879.44
2023-04-19T00:08:26.367Z,102862.19
2023-04-19T00:10:52.989Z,102873.66
2023-04-19T00:13:19.513Z,102880.91
2023-04-19T00:15:45.985Z,102871.41
2023-04-19T00:18:12.460Z,102865.69
2023-04-19T00:20:39.244Z,102845.91
2023-04-19T00:23:05.758Z,102829.22
2023-04-19T00:25:34.566Z,102871.06
2023-04-19T00:28:01.116Z,102873.03
2023-04-19T00:30:27.540Z,102861.53
2023-04-19T00:32:54.078Z,102875.53
2023-04-19T00:35:20.695Z,102876.34
2023-04-19T00:37:47.089Z,102865.28
2023-04-19T00:40:13.527Z,102865.38
2023-04-19T00:42:40.031Z,102869.94
2023-04-19T00:45:07.104Z,102854.38
2023-04-19T00:47:34.120Z,102859.56
2023-04-19T00:50:00.634Z,102844.66
2023-04-19T00:52:27.133Z,102857.94
2023-04-19T00:54:53.831Z,102858.22
2023-04-19T00:57:20.526Z,102854.63
2023-04-19T00:59:47.572Z,102857.59
2023-04-19T01:02:14.439Z,102844.25
2023-04-19T01:04:41.157Z,102853.47
2023-04-19T01:07:07.571Z,102847.34
2023-04-19T01:09:34.841Z,102847.25
2023-04-19T01:12:02.249Z,102841.44
2023-04-19T01:14:28.767Z,102850.16
2023-04-19T01:16:55.205Z,102847.25
2023-04-19T01:19:21.676Z,102848.19
2023-04-19T01:21:48.702Z,102843.22
2023-04-19T01:24:15.300Z,102840.91
2023-04-19T01:26:41.992Z,102835.53
2023-04-19T01:29:08.480Z,102844.88
2023-04-19T01:31:35.230Z,102844.03
2023-04-19T01:34:01.836Z,102839.38
2023-04-19T01:36:28.430Z,102842.06
2023-04-19T01:38:55.884Z,102839.38
2023-04-19T01:41:26.728Z,102842.59
2023-04-19T01:43:53.283Z,102836.41
2023-04-19T01:46:19.770Z,102837.75
2023-04-19T01:48:46.212Z,102840.00
2023-04-19T01:51:12.652Z,102835.66
2023-04-19T01:53:39.082Z,102841.88
2023-04-19T01:56:05.818Z,102835.53
2023-04-19T01:58:32.359Z,102831.00
2023-04-19T02:00:58.812Z,102844.25
2023-04-19T02:03:25.423Z,102838.34
2023-04-19T02:05:52.021Z,102842.59
2023-04-19T02:08:18.505Z,102840.84
2023-04-19T02:10:44.892Z,102844.53
2023-04-19T02:13:11.338Z,102827.56
2023-04-19T02:15:37.864Z,102837.50
2023-04-19T02:18:06.927Z,102842.44
2023-04-19T02:20:33.542Z,102845.25
2023-04-19T02:22:59.989Z,102844.81
2023-04-19T02:25:26.444Z,102845.09
2023-04-19T02:27:53.676Z,102843.03
2023-04-19T02:30:20.415Z,102844.69
2023-04-19T02:32:48.619Z,102840.31
2023-04-19T02:35:15.108Z,102846.94
2023-04-19T02:37:41.959Z,102822.75
2023-04-19T02:40:08.996Z,102840.94
2023-04-19T02:42:35.950Z,102847.91
2023-04-19T02:45:02.355Z,102846.03
2023-04-19T02:47:28.820Z,102845.91
2023-04-19T02:49:55.556Z,102853.69
2023-04-19T02:52:22.015Z,102849.22
2023-04-19T02:54:48.533Z,102846.78
2023-04-19T02:57:14.955Z,102845.16
2023-04-19T02:59:41.359Z,102827.56
2023-04-19T03:02:07.890Z,102858.44
2023-04-19T03:04:34.537Z,102862.69
2023-04-19T03:07:01.151Z,102853.34
2023-04-19T03:09:27.562Z,102858.97
2023-04-19T03:11:54.102Z,102844.75
2023-04-19T03:14:20.659Z,102850.84
2023-04-19T03:16:47.129Z,102846.84
2023-04-19T03:19:13.558Z,102853.13
2023-04-19T03:21:40.026Z,102851.44
2023-04-19T03:24:06.620Z,102852.16
2023-04-19T03:26:33.053Z,102844.25
2023-04-19T03:28:59.519Z,102849.56
2023-04-19T03:31:26.144Z,102844.75
2023-04-19T03:33:52.658Z,102840.19
2023-04-19T03:36:19.154Z,102847.84
2023-04-19T03:38:45.639Z,102843.16
2023-04-19T03:41:23.479Z,102839.22
2023-04-19T03:43:50.062Z,102841.25
2023-04-19T03:46:16.594Z,102840.13
2023-04-19T03:48:43.128Z,102839.41
2023-04-19T03:51:09.697Z,102827.31
2023-04-19T03:53:36.804Z,102840.34
2023-04-19T03:56:03.263Z,102836.44
2023-04-19T03:58:29.722Z,102839.53
2023-04-19T04:00:56.097Z,102840.91
2023-04-19T04:03:22.835Z,102841.34
2023-04-19T04:05:49.549Z,102839.31
2023-04-19T04:08:16.046Z,102837.22
2023-04-19T04:10:42.533Z,102838.19
2023-04-19T04:13:08.968Z,102838.50
2023-04-19T04:15:35.404Z,102842.06
2023-04-19T04:18:02.015Z,102844.44
2023-04-19T04:20:28.422Z,102842.03
2023-04-19T04:22:54.856Z,102843.81
2023-04-19T04:25:23.227Z,102838.97
2023-04-19T04:27:52.925Z,102814.53
2023-04-19T04:32:47.503Z,102836.59
2023-04-19T04:35:14.194Z,102820.75
2023-04-19T04:37:40.738Z,102835.25
2023-04-19T04:40:10.738Z,102829.75
2023-04-19T04:42:37.750Z,102838.84
2023-04-19T04:45:04.736Z,102841.34
2023-04-19T04:47:32.464Z,102834.31
2023-04-19T04:49:59.787Z,102840.44
2023-04-19T04:52:26.336Z,102833.91
2023-04-19T04:54:52.820Z,102833.69
2023-04-19T04:57:19.312Z,102840.53
2023-04-19T04:59:48.036Z,102844.25
2023-04-19T05:02:15.068Z,102841.44
2023-04-19T05:04:41.780Z,102849.94
2023-04-19T05:07:08.674Z,102839.69
2023-04-19T05:09:35.104Z,102844.09
2023-04-19T05:12:02.232Z,102854.69
2023-04-19T05:14:28.756Z,102852.22
2023-04-19T05:16:55.228Z,102849.09
2023-04-19T05:19:21.671Z,102856.88
2023-04-19T05:21:48.371Z,102844.13
2023-04-19T05:24:14.973Z,102858.63
2023-04-19T05:26:41.848Z,102856.56
2023-04-19T05:29:08.306Z,102855.63
2023-04-19T05:31:34.785Z,102860.81
2023-04-19T05:34:01.443Z,102864.53
2023-04-19T05:36:28.146Z,102860.72
2023-04-19T05:38:54.676Z,102857.41
2023-04-19T05:41:21.078Z,102862.38
2023-04-19T05:43:47.869Z,102860.09
2023-04-19T05:46:14.447Z,102850.59
2023-04-19T05:48:40.931Z,102863.94
2023-04-19T05:51:07.421Z,102854.38
2023-04-19T05:53:33.843Z,102861.25
2023-04-19T05:56:00.349Z,102854.19
2023-04-19T05:58:27.219Z,102852.56
2023-04-19T06:00:53.712Z,102863.53
2023-04-19T06:03:20.523Z,102866.94
2023-04-19T06:05:47.703Z,102869.72
2023-04-19T06:08:16.435Z,102871.06
2023-04-19T06:10:54.092Z,102866.00
2023-04-19T06:13:23.423Z,102865.06
2023-04-19T06:15:49.957Z,102870.03
2023-04-19T06:18:19.505Z,102872.09
2023-04-19T06:20:46.783Z,102864.22
2023-04-19T06:23:14.762Z,102872.06
2023-04-19T06:25:41.368Z,102865.53
2023-04-19T06:28:07.774Z,102867.28
2023-04-19T06:30:34.174Z,102855.66
2023-04-19T06:33:00.929Z,102867.03
2023-04-19T06:35:27.429Z,102872.22
2023-04-19T06:37:53.889Z,102860.41
2023-04-19T06:40:20.452Z,102868.34
2023-04-19T06:42:46.945Z,102859.72
2023-04-19T06:45:14.960Z,102857.81
2023-04-19T06:47:41.466Z,102858.00
2023-04-19T06:50:08.462Z,102856.72
2023-04-19T06:52:34.961Z,102851.53
2023-04-19T06:55:01.592Z,102848.09
2023-04-19T06:57:28.056Z,102859.44
2023-04-19T06:59:58.268Z,102863.72
2023-04-19T07:02:25.106Z,102858.22
2023-04-19T07:04:51.779Z,102854.56
2023-04-19T07:07:18.267Z,102858.78
2023-04-19T07:09:44.736Z,102862.72
2023-04-19T07:12:11.171Z,102866.84
2023-04-19T07:14:37.654Z,102866.16
2023-04-19T07:17:05.489Z,102866.84
2023-04-19T07:19:32.091Z,102869.75
2023-04-19T07:21:58.514Z,102872.81
2023-04-19T07:24:27.836Z,102864.06
2023-04-19T07:26:54.511Z,102861.59
2023-04-19T07:29:20.967Z,102854.88
2023-04-19T07:31:47.515Z,102853.09
2023-04-19T07:34:14.281Z,102859.75
2023-04-19T07:36:40.912Z,102860.09
2023-04-19T07:39:07.411Z,102865.41
2023-04-19T07:41:34.939Z,102858.78
2023-04-19T07:44:02.529Z,102852.75
2023-04-19T07:46:29.013Z,102862.56
2023-04-19T07:48:55.446Z,102866.81
2023-04-19T07:51:23.889Z,102861.81
2023-04-19T07:53:50.632Z,102866.69
2023-04-19T07:56:17.203Z,102867.63
2023-04-19T07:58:44.007Z,102864.09
2023-04-19T08:01:11.884Z,102874.72
2023-04-19T08:03:38.538Z,102861.22
2023-04-19T08:06:07.144Z,102858.69
2023-04-19T08:08:34.232Z,102859.16
2023-04-19T08:11:02.469Z,102866.44
2023-04-19T08:13:29.850Z,102868.19
2023-04-19T08:18:26.773Z,102863.88
2023-04-19T08:20:53.857Z,102856.41
2023-04-19T08:23:24.506Z,102856.75
2023-04-19T08:25:54.260Z,102851.84
2023-04-19T08:28:20.817Z,102860.47
2023-04-19T08:30:47.351Z,102854.44
2023-04-19T08:33:13.799Z,102862.63
2023-04-19T08:35:41.588Z,102860.06
2023-04-19T08:38:08.716Z,102856.75
2023-04-19T08:40:35.591Z,102838.09
2023-04-19T08:43:06.546Z,102851.00
2023-04-19T08:45:33.360Z,102841.47
2023-04-19T08:48:02.480Z,102841.91
2023-04-19T08:53:12.154Z,102847.56
2023-04-19T08:56:03.333Z,102845.63
2023-04-19T09:01:07.445Z,102848.50
2023-04-19T09:03:44.060Z,102842.47
2023-04-19T09:06:18.147Z,102846.03
2023-04-19T09:08:44.793Z,102838.34
2023-04-19T09:11:11.254Z,102834.59
2023-04-19T09:13:38.768Z,102828.63
2023-04-19T09:16:07.782Z,102828.19
2023-04-19T09:19:02.608Z,102828.03
2023-04-19T09:21:39.194Z,102826.03
2023-04-19T09:24:06.423Z,102830.47
2023-04-19T09:26:34.200Z,102826.16
2023-04-19T09:29:02.592Z,102829.75
2023-04-19T09:31:48.012Z,102824.25
2023-04-19T09:34:17.979Z,102819.19
2023-04-19T09:36:44.764Z,102813.41
2023-04-19T09:39:11.372Z,102826.69
2023-04-19T09:41:54.175Z,102812.94
2023-04-19T09:46:53.600Z,102815.16
2023-04-19T09:49:33.502Z,102810.94
2023-04-19T09:52:08.706Z,102807.44
2023-04-19T09:54:35.192Z,102809.81
2023-04-19T09:57:02.631Z,102814.59
2023-04-19T09:59:29.051Z,102811.91
2023-04-19T10:01:56.485Z,102811.88
2023-04-19T10:04:33.541Z,102814.06
2023-04-19T10:07:29.014Z,102800.94
2023-04-19T10:10:05.062Z,102800.00
2023-04-19T10:13:06.921Z,102799.41
2023-04-19T10:15:33.755Z,102782.03
2023-04-19T10:18:09.968Z,102788.31
2023-04-19T10:20:39.389Z,102790.31
2023-04-19T10:23:07.274Z,102780.69
2023-04-19T10:25:33.727Z,102790.84
2023-04-19T10:28:00.534Z,102788.19
2023-04-19T10:30:27.208Z,102792.88
2023-04-19T10:32:56.395Z,102783.69
2023-04-19T10:35:33.861Z,102789.47
2023-04-19T10:38:06.976Z,102787.97
2023-04-19T10:40:57.694Z,102781.91
2023-04-19T10:43:25.196Z,102775.63
2023-04-19T10:45:52.050Z,102780.81
2023-04-19T10:48:33.041Z,102784.81
2023-04-19T10:51:03.228Z,102789.81
2023-04-19T10:53:48.819Z,102786.94
2023-04-19T10:56:41.100Z,102777.72
2023-04-19T10:59:11.517Z,102776.03
2023-04-19T11:01:42.751Z,102772.13
2023-04-19T11:04:11.018Z,102769.03
2023-04-19T11:06:38.830Z,102759.63
2023-04-19T11:09:10.666Z,102769.69
2023-04-19T11:11:37.239Z,102770.34
2023-04-19T11:14:04.309Z,102757.19
2023-04-19T11:16:42.494Z,102750.06
2023-04-19T11:19:19.809Z,102755.81
2023-04-19T11:21:47.095Z,102749.97
2023-04-19T11:24:16.237Z,102737.63
2023-04-19T11:26:43.882Z,102730.59
2023-04-19T11:29:10.797Z,102731.19
2023-04-19T11:31:37.485Z,102734.91
2023-04-19T11:34:04.065Z,102731.09
2023-04-19T11:36:32.147Z,102725.03
2023-04-19T11:38:58.645Z,102731.19
2023-04-19T11:41:25.268Z,102722.53
2023-04-19T11:43:52.021Z,102727.53
2023-04-19T11:46:18.523Z,102713.81
2023-04-19T11:48:53.180Z,102704.25
2023-04-19T11:51:20.360Z,102699.06
2023-04-19T11:53:47.045Z,102699.31
2023-04-19T11:56:15.222Z,102697.28
2023-04-19T11:58:45.008Z,102698.56
2023-04-19T12:01:16.283Z,102697.44
2023-04-19T12:03:53.705Z,102697.75
2023-04-19T12:06:28.497Z,102688.16
2023-04-19T12:08:56.046Z,102686.28
2023-04-19T12:11:24.831Z,102694.34
2023-04-19T12:14:13.676Z,102682.84
2023-04-19T12:16:40.349Z,102696.13
2023-04-19T12:19:14.434Z,102696.03
2023-04-19T12:21:41.349Z,102684.59
2023-04-19T12:24:07.853Z,102683.56
2023-04-19T12:26:34.825Z,102684.31
2023-04-19T12:29:03.268Z,102679.84
2023-04-19T12:31:32.333Z,102683.59
2023-04-19T12:33:58.815Z,102673.91
2023-04-19T12:36:25.293Z,102674.44
2023-04-19T12:38:51.864Z,102674.66
2023-04-19T12:41:18.393Z,102666.09
2023-04-19T12:43:44.804Z,102664.31
2023-04-19T12:46:11.410Z,102655.94
2023-04-19T12:48:37.884Z,102660.47
2023-04-19T12:51:05.668Z,102654.28
2023-04-19T12:53:32.084Z,102665.09
2023-04-19T12:55:58.654Z,102654.78
2023-04-19T12:58:25.153Z,102649.38
2023-04-19T13:00:51.722Z,102646.69
2023-04-19T13:03:18.259Z,102649.41
2023-04-19T13:05:44.937Z,102639.56
2023-04-19T13:08:11.445Z,102637.19
2023-04-19T13:10:37.986Z,102647.13
2023-04-19T13:13:04.468Z,102631.41
2023-04-19T13:15:31.141Z,102623.06
2023-04-19T13:17:57.669Z,102619.66
2023-04-19T13:20:24.136Z,102615.78
2023-04-19T13:22:50.675Z,102615.31
2023-04-19T13:25:17.206Z,102609.84
2023-04-19T13:27:43.799Z,102606.59
2023-04-19T13:30:10.768Z,102602.81
2023-04-19T13:32:37.545Z,102601.59
2023-04-19T13:35:04.194Z,102595.47
2023-04-19T13:37:30.660Z,102604.13
2023-04-19T13:40:10.618Z,102600.84
2023-04-19T13:42:43.525Z,102598.16
2023-04-19T13:45:10.285Z,102585.72
2023-04-19T13:47:36.999Z,102578.72
2023-04-19T13:50:03.546Z,102569.50
2023-04-19T13:52:29.939Z,102579.00
2023-04-19T13:54:56.500Z,102575.78
2023-04-19T13:57:23.010Z,102567.78
2023-04-19T13:59:49.410Z,102561.00
2023-04-19T14:02:16.188Z,102556.69
2023-04-19T14:04:42.840Z,102571.06
2023-04-19T14:07:09.860Z,102561.06
2023-04-19T14:09:37.009Z,102548.41
2023-04-19T14:12:04.468Z,102555.75
2023-04-19T14:14:32.255Z,102548.91
2023-04-19T14:16:59.031Z,102544.53
2023-04-19T14:19:25.515Z,102536.59
2023-04-19T14:21:51.948Z,102538.06
2023-04-19T14:24:18.711Z,102530.81
2023-04-19T14:26:45.365Z,102522.09
2023-04-19T14:29:11.871Z,102523.44
2023-04-19T14:31:38.436Z,102524.03
2023-04-19T14:34:04.943Z,102518.31
2023-04-19T14:36:31.482Z,102505.31
2023-04-19T14:38:57.903Z,102511.69
2023-04-19T14:41:24.687Z,102510.47
2023-04-19T14:43:52.105Z,102492.25
2023-04-19T14:46:18.705Z,102507.34
2023-04-19T14:48:45.246Z,102501.78
2023-04-19T14:51:11.731Z,102480.94
2023-04-19T14:53:38.199Z,102502.09
2023-04-19T14:56:05.888Z,102497.50
2023-04-19T14:58:32.364Z,102493.91
2023-04-19T15:00:59.494Z,102492.97
2023-04-19T15:03:26.220Z,102493.34
2023-04-19T15:05:53.017Z,102482.06
2023-04-19T15:08:30.242Z,102481.75
2023-04-19T15:10:57.330Z,102476.03
2023-04-19T15:13:23.775Z,102470.66
2023-04-19T15:15:50.259Z,102471.03
2023-04-19T15:18:17.037Z,102478.44
2023-04-19T15:20:43.444Z,102470.72
2023-04-19T15:23:09.900Z,102465.91
2023-04-19T15:25:36.366Z,102465.78
2023-04-19T15:28:02.961Z,102468.00
2023-04-19T15:30:29.368Z,102463.41
2023-04-19T15:32:56.184Z,102461.06
2023-04-19T15:35:22.797Z,102465.78
2023-04-19T15:37:49.237Z,102467.63
2023-04-19T15:40:17.061Z,102463.69
2023-04-19T15:42:43.515Z,102465.22
2023-04-19T15:45:10.310Z,102461.63
2023-04-19T15:47:36.828Z,102465.28
2023-04-19T15:50:04.604Z,102468.84
2023-04-19T15:52:31.385Z,102470.44
2023-04-19T15:54:57.810Z,102463.00
2023-04-19T15:57:24.239Z,102460.16
2023-04-19T15:59:50.669Z,102461.00
2023-04-19T16:02:17.333Z,102467.63
2023-04-19T16:04:47.152Z,102464.44
2023-04-19T16:07:14.311Z,102459.41
2023-04-19T16:09:40.711Z,102456.16
2023-04-19T16:12:07.190Z,102450.44
2023-04-19T16:14:33.649Z,102449.63
2023-04-19T16:17:02.904Z,102446.72
2023-04-19T16:19:29.398Z,102446.38
2023-04-19T16:21:56.851Z,102445.31
2023-04-19T16:24:23.284Z,102440.56
2023-04-19T16:26:49.688Z,102443.59
2023-04-19T16:29:16.490Z,102439.88
2023-04-19T16:31:43.289Z,102437.78
2023-04-19T16:34:09.815Z,102449.22
2023-04-19T16:36:36.278Z,102446.78
2023-04-19T16:39:02.811Z,102443.06
2023-04-19T16:41:29.854Z,102439.47
2023-04-19T16:43:56.492Z,102441.72
2023-04-19T16:46:23.135Z,102430.13
2023-04-19T16:48:49.597Z,102429.88
2023-04-19T16:51:16.021Z,102433.19
2023-04-19T16:53:43.577Z,102437.06
2023-04-19T16:56:10.061Z,102437.56
2023-04-19T16:58:36.588Z,102431.56
2023-04-19T17:01:03.456Z,102432.31
2023-04-19T17:03:33.065Z,102432.31
2023-04-19T17:06:00.885Z,102424.72
2023-04-19T17:08:27.336Z,102440.31
2023-04-19T17:10:53.799Z,102440.22
2023-04-19T17:13:20.275Z,102435.13
2023-04-19T17:15:46.873Z,102427.22
2023-04-19T17:18:13.425Z,102436.03
2023-04-19T17:20:40.053Z,102440.72
2023-04-19T17:23:06.783Z,102428.41
2023-04-19T17:25:33.212Z,102430.72
2023-04-19T17:27:59.696Z,102434.56
2023-04-19T17:30:27.651Z,102424.25
2023-04-19T17:32:54.074Z,102429.69
2023-04-19T17:35:20.678Z,102427.38
2023-04-19T17:37:47.415Z,102424.09
2023-04-19T17:40:13.902Z,102426.47
2023-04-19T17:42:40.340Z,102428.03
2023-04-19T17:45:10.913Z,102427.53
2023-04-19T17:47:38.515Z,102427.38
2023-04-19T17:50:07.162Z,102428.75
2023-04-19T17:52:34.191Z,102435.28
2023-04-19T17:55:00.989Z,102438.47
2023-04-19T17:57:29.086Z,102424.78
2023-04-19T17:59:55.765Z,102431.84
2023-04-19T18:02:22.992Z,102436.16
2023-04-19T18:04:49.725Z,102437.25
2023-04-19T18:07:16.174Z,102431.31
2023-04-19T18:09:42.596Z,102427.44
2023-04-19T18:12:09.107Z,102430.88
2023-04-19T18:14:35.810Z,102435.19
2023-04-19T18:17:03.096Z,102431.88
2023-04-19T18:19:29.691Z,102434.56
2023-04-19T18:21:56.424Z,102438.75
2023-04-19T18:24:23.501Z,102437.84
2023-04-19T18:26:50.184Z,102439.47
2023-04-19T18:29:19.146Z,102436.88
2023-04-19T18:31:45.643Z,102449.59
2023-04-19T18:34:12.657Z,102451.56
2023-04-19T18:36:39.247Z,102452.09
2023-04-19T18:39:05.740Z,102454.50
2023-04-19T18:41:32.226Z,102460.94
2023-04-19T18:46:29.248Z,102461.94
2023-04-19T18:48:55.772Z,102459.19
2023-04-19T18:51:22.273Z,102463.88
2023-04-19T18:53:49.607Z,102468.03
2023-04-19T18:56:16.846Z,102471.44
2023-04-19T18:58:43.471Z,102474.34
2023-04-19T19:01:12.020Z,102480.22
2023-04-19T19:04:00.603Z,102471.03
2023-04-19T19:06:25.347Z,102482.28
2023-04-19T19:08:51.883Z,102473.78
2023-04-19T19:11:37.416Z,102482.28
2023-04-19T19:14:04.727Z,102486.38
2023-04-19T19:16:31.622Z,102486.75
2023-04-19T19:18:58.116Z,102482.50
2023-04-19T19:21:24.609Z,102485.22
2023-04-19T19:23:53.404Z,102493.41
2023-04-19T19:26:20.843Z,102499.28
2023-04-19T19:28:47.426Z,102501.47
2023-04-19T19:31:13.908Z,102501.31
2023-04-19T19:33:40.906Z,102502.66
2023-04-19T19:36:07.548Z,102517.34
2023-04-19T19:38:37.005Z,102518.25
2023-04-19T19:43:36.179Z,102513.41
2023-04-19T19:46:02.857Z,102516.72
2023-04-19T19:48:30.395Z,102521.84
2023-04-19T19:51:28.636Z,102516.22
2023-04-19T19:53:44.376Z,102526.25
2023-04-19T19:56:18.292Z,102529.53
2023-04-19T19:58:50.232Z,102524.84
2023-04-19T20:01:18.081Z,102535.63
2023-04-19T20:03:45.279Z,102545.06
2023-04-19T20:06:57.132Z,102536.81
2023-04-19T20:08:59.715Z,102543.94
2023-04-19T20:11:26.339Z,102540.19
2023-04-19T20:13:52.818Z,102545.19
2023-04-19T20:16:19.621Z,102543.94
2023-04-19T20:18:46.463Z,102549.38
2023-04-19T20:21:12.970Z,102548.56
2023-04-19T20:23:39.477Z,102551.88
2023-04-19T20:26:05.928Z,102559.25
2023-04-19T20:28:32.505Z,102557.22
2023-04-19T20:30:58.890Z,102565.41
2023-04-19T20:33:25.774Z,102559.47
2023-04-19T20:35:53.510Z,102555.78
2023-04-19T20:38:23.238Z,102565.16
2023-04-19T20:40:49.646Z,102559.81
2023-04-19T20:43:16.807Z,102561.66
2023-04-19T20:45:43.305Z,102570.63
2023-04-19T20:48:09.857Z,102567.34
2023-04-19T20:50:36.318Z,102566.38
2023-04-19T20:53:02.837Z,102560.34
2023-04-19T20:55:29.277Z,102568.59
2023-04-19T20:57:56.002Z,102566.38
2023-04-19T21:00:22.457Z,102562.97
2023-04-19T21:02:49.619Z,102561.22
2023-04-19T21:05:16.243Z,102561.47
2023-04-19T21:07:42.797Z,102550.38
2023-04-19T21:10:11.268Z,102551.56
2023-04-19T21:12:37.663Z,102555.94
2023-04-19T21:15:04.958Z,102553.91
2023-04-19T21:17:31.425Z,102565.59
2023-04-19T21:19:57.837Z,102561.22
2023-04-19T21:22:24.225Z,102564.06
2023-04-19T21:24:50.753Z,102565.00
2023-04-19T21:27:17.298Z,102555.47
2023-04-19T21:29:43.812Z,102557.00
2023-04-19T21:32:10.423Z,102550.41
2023-04-19T21:34:38.209Z,102558.44
2023-04-19T21:37:04.716Z,102557.13
2023-04-19T21:39:31.219Z,102549.69
2023-04-19T21:41:57.648Z,102555.72
2023-04-19T21:44:24.112Z,102554.16
2023-04-19T21:46:50.643Z,102552.72
2023-04-19T21:49:17.349Z,102547.47
2023-04-19T21:51:44.045Z,102552.13
2023-04-19T21:54:10.806Z,102548.25
2023-04-19T21:56:39.181Z,102552.38
2023-04-19T21:59:05.648Z,102552.38
2023-04-19T22:01:32.067Z,102554.25
2023-04-19T22:03:58.544Z,102553.78
2023-04-19T22:06:25.327Z,102550.25
2023-04-19T22:08:51.740Z,102551.06
2023-04-19T22:11:18.430Z,102553.28
2023-04-19T22:13:45.002Z,102555.78
2023-04-19T22:16:11.586Z,102545.41
2023-04-19T22:18:38.212Z,102538.56
2023-04-19T22:21:04.807Z,102555.50
2023-04-19T22:23:31.279Z,102548.28
2023-04-19T22:25:57.728Z,102557.94
2023-04-19T22:28:24.165Z,102560.03
2023-04-19T22:30:51.177Z,102543.50
2023-04-19T22:33:18.849Z,102546.69
2023-04-19T22:35:45.344Z,102556.84
2023-04-19T22:38:11.797Z,102548.22
2023-04-19T22:40:38.300Z,102558.63
2023-04-19T22:43:04.733Z,102552.59
2023-04-19T22:45:31.208Z,102542.19
2023-04-19T22:47:57.718Z,102544.78
2023-04-19T22:50:24.193Z,102556.53
2023-04-19T22:52:50.874Z,102556.44
2023-04-19T22:55:17.353Z,102557.88
2023-04-19T22:57:44.012Z,102548.13
2023-04-19T23:00:11.112Z,102550.59
2023-04-19T23:02:38.469Z,102531.38
2023-04-19T23:05:06.110Z,102552.69
2023-04-19T23:07:33.206Z,102551.53
2023-04-19T23:09:59.709Z,102543.28
2023-04-19T23:12:26.155Z,102541.22
2023-04-19T23:14:52.584Z,102544.66
2023-04-19T23:17:19.811Z,102532.25
2023-04-19T23:19:46.376Z,102531.88
2023-04-19T23:22:12.804Z,102545.69
2023-04-19T23:24:39.315Z,102538.59
2023-04-19T23:27:05.782Z,102532.16
2023-04-19T23:29:32.201Z,102531.88
2023-04-19T23:31:58.666Z,102506.16
2023-04-19T23:34:25.093Z,102511.00
2023-04-19T23:36:51.765Z,102500.53
2023-04-19T23:39:18.638Z,102522.66
2023-04-19T23:41:45.635Z,102480.72
2023-04-19T23:44:12.102Z,102475.28
2023-04-19T23:46:38.684Z,102501.59
2023-04-19T23:49:05.457Z,102504.41
2023-04-19T23:51:32.850Z,102509.31
2023-04-19T23:53:59.268Z,102496.19
2023-04-19T23:56:25.878Z,102489.69
2023-04-19T23:58:52.246Z,102463.56
